ePrivacy and GPDR Cookie Consent by Cookie Consent
EmailTwitter


Surface observations / United Kingdom / EGUB (03658)

Regions: Quebec | Canada | USA | Europe | France | UK | Elsewhere
Station
Display
Info & Location for EGUB (03658) | Help decoding METAR

Weather Conditions observed on 2021/06/20 at 15:50 UTC at BENSON RAF, UK (EGUB)

Sky conditions: partly cloudy.

Temperature: 15.0 Celsius.

Dewpoint: 13.0 Celsius.

Relative Humidity: 88%

Winds: Northeast at 19 km/h or 10 knots.

Mean Sea level Pressure: 100.80 kilopascals.

Horizontal visibility: 6.21 statute miles or 9.94 kilometers.

Height of the Ceiling: 274 metres ( 900 feet ).

Coded METAR:

EGUB 201550Z AUTO 03010KT 9999 // BKN009/// SCT021/// 15/13 Q1008=